createdAt,value
2023-04-08T00:03:08.128Z,16.23
2023-04-08T00:08:07.660Z,16.35
2023-04-08T00:13:06.407Z,15.98
2023-04-08T00:18:08.262Z,16.40
2023-04-08T00:23:06.973Z,19.40
2023-04-08T00:28:05.706Z,19.35
2023-04-08T00:33:06.129Z,18.85
2023-04-08T00:38:08.064Z,18.50
2023-04-08T00:43:06.752Z,17.95
2023-04-08T00:48:07.585Z,18.38
2023-04-08T00:53:06.767Z,18.77
2023-04-08T00:58:05.755Z,18.42
2023-04-08T01:03:16.215Z,19.08
2023-04-08T01:08:16.824Z,18.67
2023-04-08T01:13:19.476Z,18.02
2023-04-08T01:18:22.771Z,17.80
2023-04-08T01:23:31.163Z,18.92
2023-04-08T01:28:32.765Z,19.58
2023-04-08T01:33:33.149Z,18.90
2023-04-08T01:38:34.438Z,18.95
2023-04-08T01:43:35.344Z,18.17
2023-04-08T01:48:36.715Z,19.77
2023-04-08T01:53:36.024Z,20.20
2023-04-08T01:58:41.012Z,17.77
2023-04-08T02:03:42.841Z,20.83
2023-04-08T02:08:41.671Z,21.92
2023-04-08T02:13:41.987Z,20.67
2023-04-08T02:18:44.838Z,19.95
2023-04-08T02:23:50.282Z,20.13
2023-04-08T02:28:51.386Z,21.15
2023-04-08T02:33:54.766Z,21.27
2023-04-08T02:38:53.588Z,21.88
2023-04-08T02:43:55.557Z,19.15
2023-04-08T02:48:55.075Z,21.30
2023-04-08T02:53:53.781Z,20.02
2023-04-08T02:58:53.916Z,21.05
2023-04-08T03:03:52.704Z,18.73
2023-04-08T03:08:51.897Z,19.50
2023-04-08T03:13:50.733Z,21.10
2023-04-08T03:18:52.510Z,21.92
2023-04-08T03:23:51.430Z,19.77
2023-04-08T03:28:50.285Z,19.67
2023-04-08T03:33:49.298Z,19.65
2023-04-08T03:38:49.628Z,19.95
2023-04-08T03:43:48.592Z,18.20
2023-04-08T03:48:48.602Z,19.48
2023-04-08T03:53:49.374Z,19.90
2023-04-08T03:58:48.212Z,18.70
2023-04-08T04:03:47.175Z,19.70
2023-04-08T04:08:46.550Z,18.58
2023-04-08T04:13:46.607Z,19.08
2023-04-08T04:18:45.465Z,19.02
2023-04-08T04:23:44.334Z,19.73
2023-04-08T04:28:43.020Z,17.70
2023-04-08T04:33:43.094Z,18.17
2023-04-08T04:38:42.916Z,18.58
2023-04-08T04:43:41.842Z,19.90
2023-04-08T04:48:40.695Z,19.83
2023-04-08T04:53:40.908Z,19.73
2023-04-08T04:58:39.671Z,18.80
2023-04-08T05:03:40.719Z,17.80
2023-04-08T05:08:41.214Z,17.13
2023-04-08T05:13:39.898Z,18.30
2023-04-08T05:18:38.741Z,18.17
2023-04-08T05:23:37.533Z,17.10
2023-04-08T05:28:37.740Z,18.17
2023-04-08T05:33:36.458Z,19.08
2023-04-08T05:38:35.154Z,16.42
2023-04-08T05:43:34.324Z,17.65
2023-04-08T05:48:34.578Z,17.13
2023-04-08T05:53:33.415Z,17.95
2023-04-08T05:58:32.169Z,17.42
2023-04-08T06:03:32.041Z,18.13
2023-04-08T06:08:32.342Z,16.50
2023-04-08T06:13:31.081Z,17.38
2023-04-08T06:18:29.802Z,17.13
2023-04-08T06:23:30.898Z,19.77
2023-04-08T06:28:32.176Z,14.48
2023-04-08T06:33:31.067Z,15.85
2023-04-08T06:38:32.505Z,15.82
2023-04-08T06:43:32.734Z,16.50
2023-04-08T06:48:31.606Z,12.38
2023-04-08T06:53:31.407Z,14.82
2023-04-08T06:58:31.036Z,14.05
2023-04-08T07:03:31.272Z,11.82
2023-04-08T07:08:30.158Z,15.43
2023-04-08T07:13:29.844Z,16.13
2023-04-08T07:18:28.588Z,13.57
2023-04-08T07:23:28.819Z,15.18
2023-04-08T07:28:27.505Z,14.60
2023-04-08T07:33:27.081Z,16.70
2023-04-08T07:38:30.242Z,15.68
2023-04-08T07:43:29.228Z,14.93
2023-04-08T07:48:27.947Z,16.25
2023-04-08T07:53:30.261Z,14.27
2023-04-08T07:58:30.291Z,15.90
2023-04-08T08:03:30.738Z,13.65
2023-04-08T08:08:33.522Z,15.45
2023-04-08T08:13:34.388Z,15.10
2023-04-08T08:18:33.082Z,14.82
2023-04-08T08:23:31.801Z,15.93
2023-04-08T08:28:30.634Z,15.00
2023-04-08T08:33:31.007Z,14.27
2023-04-08T08:38:29.759Z,15.38
2023-04-08T08:43:30.139Z,12.82
2023-04-08T08:48:30.660Z,13.05
2023-04-08T08:53:34.246Z,13.60
2023-04-08T08:58:34.887Z,13.70
2023-04-08T09:03:35.145Z,12.93
2023-04-08T09:08:35.566Z,14.30
2023-04-08T09:13:37.753Z,14.00
2023-04-08T09:18:38.713Z,13.25
2023-04-08T09:23:42.598Z,12.77
2023-04-08T09:28:43.114Z,12.50
2023-04-08T09:33:43.254Z,11.63
2023-04-08T09:38:42.056Z,13.00
2023-04-08T09:43:49.124Z,11.05
2023-04-08T09:48:52.549Z,23.08
2023-04-08T09:53:57.682Z,12.50
2023-04-08T09:59:00.954Z,10.38
2023-04-08T10:04:10.176Z,10.50
2023-04-08T10:09:10.466Z,9.57
2023-04-08T10:14:11.550Z,10.38
2023-04-08T10:19:42.193Z,9.80
2023-04-08T10:24:41.353Z,10.88
2023-04-08T10:29:42.493Z,13.27
2023-04-08T10:34:54.257Z,11.65
2023-04-08T10:39:55.878Z,12.40
2023-04-08T10:44:54.630Z,11.23
2023-04-08T10:49:54.854Z,9.48
2023-04-08T10:54:55.757Z,9.57
2023-04-08T10:59:54.769Z,10.25
2023-04-08T11:04:57.557Z,9.98
2023-04-08T11:09:56.657Z,9.90
2023-04-08T11:14:55.426Z,10.43
2023-04-08T11:19:54.362Z,10.70
2023-04-08T11:24:54.737Z,10.18
2023-04-08T11:29:55.106Z,10.07
2023-04-08T11:34:57.980Z,9.43
2023-04-08T11:39:58.446Z,12.13
2023-04-08T11:44:57.625Z,12.13
2023-04-08T11:49:58.371Z,11.73
2023-04-08T11:54:58.566Z,11.18
2023-04-08T12:00:00.640Z,10.48
2023-04-08T12:04:59.427Z,11.45
2023-04-08T12:09:59.575Z,17.52
2023-04-08T12:14:58.406Z,10.48
2023-04-08T12:19:57.386Z,12.27
2023-04-08T12:24:58.207Z,12.30
2023-04-08T12:30:02.324Z,12.00
2023-04-08T12:35:04.370Z,12.05
2023-04-08T12:40:03.410Z,13.32
2023-04-08T12:45:03.713Z,10.02
2023-04-08T12:50:02.476Z,10.65
2023-04-08T12:55:01.289Z,12.73
2023-04-08T13:00:00.083Z,15.07
2023-04-08T13:05:00.284Z,13.68
2023-04-08T13:09:59.004Z,11.25
2023-04-08T13:14:58.543Z,13.50
2023-04-08T13:19:57.284Z,11.73
2023-04-08T13:24:57.686Z,14.23
2023-04-08T13:29:56.484Z,10.15
2023-04-08T13:34:55.264Z,11.73
2023-04-08T13:39:53.965Z,10.43
2023-04-08T13:44:54.047Z,10.07
2023-04-08T13:49:53.458Z,7.97
2023-04-08T13:54:52.158Z,9.65
2023-04-08T13:59:51.031Z,8.35
2023-04-08T14:04:52.450Z,9.32
2023-04-08T14:09:51.733Z,10.43
2023-04-08T14:14:50.607Z,12.50
2023-04-08T14:19:51.173Z,16.17
2023-04-08T14:24:49.785Z,13.13
2023-04-08T14:29:48.462Z,11.63
2023-04-08T14:34:47.137Z,11.45
2023-04-08T14:39:47.375Z,11.30
2023-04-08T14:44:46.082Z,12.43
2023-04-08T14:49:44.843Z,12.25
2023-04-08T14:54:45.325Z,11.68
2023-04-08T14:59:50.746Z,10.38
2023-04-08T15:04:49.641Z,10.10
2023-04-08T15:09:48.421Z,10.60
2023-04-08T15:14:48.685Z,10.40
2023-04-08T15:19:47.683Z,9.75
2023-04-08T15:24:50.183Z,10.63
2023-04-08T15:29:50.512Z,9.68
2023-04-08T15:34:51.201Z,11.05
2023-04-08T15:39:49.904Z,12.10
2023-04-08T15:44:50.373Z,12.13
2023-04-08T15:49:49.068Z,11.18
2023-04-08T15:54:47.809Z,11.77
2023-04-08T15:59:46.546Z,13.02
2023-04-08T16:04:47.804Z,14.52
2023-04-08T16:09:47.200Z,14.02
2023-04-08T16:14:46.415Z,14.50
2023-04-08T16:19:47.229Z,14.50
2023-04-08T16:24:46.276Z,16.08
2023-04-08T16:29:44.973Z,16.85
2023-04-08T16:34:43.864Z,17.52
2023-04-08T16:39:44.001Z,17.98
2023-04-08T16:44:43.043Z,18.80
2023-04-08T16:49:41.765Z,18.00
2023-04-08T16:54:40.389Z,18.58
2023-04-08T16:59:40.485Z,18.15
2023-04-08T17:04:40.590Z,18.85
2023-04-08T17:09:39.402Z,18.33
2023-04-08T17:14:38.256Z,16.77
2023-04-08T17:19:38.320Z,17.13
2023-04-08T17:24:37.061Z,18.10
2023-04-08T17:29:35.798Z,18.20
2023-04-08T17:34:34.511Z,19.23
2023-04-08T17:39:40.717Z,20.40
2023-04-08T17:44:42.239Z,18.27
2023-04-08T17:49:41.168Z,19.30
2023-04-08T17:54:41.540Z,16.10
2023-04-08T17:59:40.277Z,17.17
2023-04-08T18:04:39.038Z,16.85
2023-04-08T18:09:38.104Z,15.57
2023-04-08T18:14:38.356Z,17.48
2023-04-08T18:19:37.050Z,16.83
2023-04-08T18:24:35.774Z,18.83
2023-04-08T18:29:34.663Z,18.02
2023-04-08T18:34:35.005Z,17.20
2023-04-08T18:39:34.010Z,18.10
2023-04-08T18:44:32.813Z,18.20
2023-04-08T18:49:33.358Z,16.85
2023-04-08T18:54:34.238Z,16.33
2023-04-08T18:59:33.029Z,15.50
2023-04-08T19:04:32.002Z,15.25
2023-04-08T19:09:31.145Z,12.35
2023-04-08T19:14:31.385Z,12.43
2023-04-08T19:19:30.302Z,11.50
2023-04-08T19:24:28.995Z,11.50
2023-04-08T19:29:29.826Z,12.10
2023-04-08T19:34:32.126Z,8.40
2023-04-08T19:39:30.938Z,8.00
2023-04-08T19:44:29.643Z,7.93
2023-04-08T19:49:29.477Z,9.10
2023-04-08T19:54:30.287Z,8.93
2023-04-08T19:59:29.108Z,8.98
2023-04-08T20:04:27.916Z,8.90
2023-04-08T20:09:26.674Z,8.68
2023-04-08T20:14:27.230Z,8.25
2023-04-08T20:19:26.273Z,8.38
2023-04-08T20:24:25.190Z,8.85
2023-04-08T20:29:24.120Z,9.60
2023-04-08T20:34:24.510Z,9.52
2023-04-08T20:39:29.504Z,8.75
2023-04-08T20:44:28.837Z,8.90
2023-04-08T20:49:29.040Z,9.63
2023-04-08T20:54:30.799Z,9.52
2023-04-08T20:59:29.555Z,9.55
2023-04-08T21:04:32.061Z,9.93
2023-04-08T21:09:31.560Z,10.57
2023-04-08T21:14:35.826Z,13.07
2023-04-08T21:19:41.162Z,13.80
2023-04-08T21:24:49.113Z,13.20
2023-04-08T21:30:00.768Z,12.20
2023-04-08T21:35:07.500Z,13.93
2023-04-08T21:40:13.135Z,13.85
2023-04-08T21:45:18.411Z,13.70
2023-04-08T21:50:26.795Z,11.88
2023-04-08T21:55:27.201Z,12.77
2023-04-08T22:00:25.958Z,13.25
2023-04-08T22:05:26.128Z,12.63
2023-04-08T22:10:25.082Z,10.98
2023-04-08T22:15:24.125Z,10.02
2023-04-08T22:20:22.868Z,10.15
2023-04-08T22:25:23.135Z,9.55
2023-04-08T22:30:22.566Z,8.82
2023-04-08T22:35:21.561Z,8.77
2023-04-08T22:40:20.471Z,9.90
2023-04-08T22:45:20.824Z,10.93
2023-04-08T22:50:22.180Z,8.85
2023-04-08T22:55:21.277Z,9.43
2023-04-08T23:00:21.737Z,9.73
2023-04-08T23:05:20.516Z,8.23
2023-04-08T23:10:19.453Z,7.93
2023-04-08T23:15:18.444Z,9.18
2023-04-08T23:20:18.738Z,9.30
2023-04-08T23:25:17.463Z,10.20
2023-04-08T23:30:16.255Z,11.75
2023-04-08T23:35:16.588Z,11.70
2023-04-08T23:40:16.943Z,13.35
2023-04-08T23:45:15.688Z,15.57
2023-04-08T23:50:14.441Z,14.73
2023-04-08T23:55:13.567Z,16.15
